createdAt,value
2018-01-25T00:00:10.268Z,29.70
2018-01-25T00:02:41.025Z,31.77
2018-01-25T00:05:11.784Z,32.00
2018-01-25T00:07:42.573Z,33.10
2018-01-25T00:10:13.317Z,34.17
2018-01-25T00:12:44.072Z,36.27
2018-01-25T00:15:14.804Z,34.23
2018-01-25T00:17:45.573Z,30.40
2018-01-25T00:20:16.312Z,32.27
2018-01-25T00:22:47.078Z,29.50
2018-01-25T00:25:17.832Z,30.10
2018-01-25T00:27:48.621Z,32.10
2018-01-25T00:30:19.409Z,30.00
2018-01-25T00:32:50.172Z,35.10
2018-01-25T00:35:20.995Z,33.43
2018-01-25T00:37:51.724Z,33.73
2018-01-25T00:40:22.468Z,34.37
2018-01-25T00:42:53.250Z,33.00
2018-01-25T00:45:24.004Z,34.80
2018-01-25T00:47:54.789Z,33.97
2018-01-25T00:50:25.528Z,39.50
2018-01-25T00:52:56.301Z,34.50
2018-01-25T00:55:27.082Z,38.37
2018-01-25T00:57:57.845Z,38.27
2018-01-25T01:00:28.604Z,35.13
2018-01-25T01:02:59.363Z,40.53
2018-01-25T01:05:30.129Z,35.60
2018-01-25T01:08:00.892Z,38.60
2018-01-25T01:10:31.634Z,34.50
2018-01-25T01:13:03.188Z,36.25
2018-01-25T01:15:33.924Z,38.80
2018-01-25T01:18:04.732Z,36.37
2018-01-25T01:20:35.457Z,36.97
2018-01-25T01:23:06.202Z,39.27
2018-01-25T01:25:36.947Z,38.93
2018-01-25T01:28:07.684Z,36.27
2018-01-25T01:30:38.438Z,36.80
2018-01-25T01:33:09.212Z,33.43
2018-01-25T01:35:39.949Z,36.73
2018-01-25T01:38:10.717Z,29.23
2018-01-25T01:40:41.450Z,33.37
2018-01-25T01:43:12.210Z,35.93
2018-01-25T01:45:42.992Z,34.53
2018-01-25T01:48:13.758Z,34.10
2018-01-25T01:50:44.500Z,35.17
2018-01-25T01:53:15.283Z,35.80
2018-01-25T01:55:46.048Z,33.10
2018-01-25T01:58:16.796Z,35.90
2018-01-25T02:00:47.589Z,35.77
2018-01-25T02:03:18.364Z,35.30
2018-01-25T02:05:49.116Z,38.87
2018-01-25T02:08:19.881Z,33.10
2018-01-25T02:10:50.621Z,36.00
2018-01-25T02:13:21.397Z,32.07
2018-01-25T02:15:52.157Z,42.33
2018-01-25T02:18:22.909Z,37.17
2018-01-25T02:20:53.658Z,35.03
2018-01-25T02:23:24.477Z,34.80
2018-01-25T02:25:55.240Z,32.87
2018-01-25T02:28:26.001Z,39.53
2018-01-25T02:30:56.737Z,35.63
2018-01-25T02:33:27.508Z,37.90
2018-01-25T02:35:58.261Z,32.33
2018-01-25T02:38:29.024Z,39.60
2018-01-25T02:40:59.761Z,38.50
2018-01-25T02:43:30.509Z,32.17
2018-01-25T02:46:01.253Z,39.47
2018-01-25T02:48:32.040Z,37.60
2018-01-25T02:51:02.805Z,37.23
2018-01-25T02:53:33.552Z,43.53
2018-01-25T02:56:04.293Z,32.37
2018-01-25T02:58:35.047Z,36.33
2018-01-25T03:01:05.801Z,32.07
2018-01-25T03:03:36.552Z,41.20
2018-01-25T03:06:07.301Z,34.70
2018-01-25T03:08:38.070Z,39.30
2018-01-25T03:11:08.809Z,36.03
2018-01-25T03:13:39.564Z,37.63
2018-01-25T03:16:10.324Z,39.07
2018-01-25T03:18:41.105Z,33.20
2018-01-25T03:21:11.861Z,34.20
2018-01-25T03:23:42.629Z,40.63
2018-01-25T03:26:13.360Z,38.40
2018-01-25T03:28:44.119Z,35.50
2018-01-25T03:31:14.861Z,32.93
2018-01-25T03:33:45.624Z,38.83
2018-01-25T03:36:16.361Z,39.40
2018-01-25T03:38:47.097Z,38.53
2018-01-25T03:41:17.833Z,33.03
2018-01-25T03:43:48.591Z,34.53
2018-01-25T03:46:19.345Z,33.53
2018-01-25T03:48:50.103Z,36.53
2018-01-25T03:51:20.840Z,36.50
2018-01-25T03:53:51.593Z,34.40
2018-01-25T03:56:22.339Z,33.23
2018-01-25T03:58:53.112Z,36.30
2018-01-25T04:01:23.848Z,38.93
2018-01-25T04:03:54.615Z,33.80
2018-01-25T04:06:25.340Z,34.20
2018-01-25T04:08:56.128Z,36.50
2018-01-25T04:11:26.864Z,34.50
2018-01-25T04:13:57.636Z,40.67
2018-01-25T04:16:28.376Z,36.53
2018-01-25T04:18:59.136Z,33.40
2018-01-25T04:21:29.884Z,33.03
2018-01-25T04:24:00.653Z,33.50
2018-01-25T04:26:31.392Z,40.13
2018-01-25T04:29:02.153Z,31.87
2018-01-25T04:31:32.892Z,32.90
2018-01-25T04:34:03.654Z,37.77
2018-01-25T04:36:34.425Z,39.13
2018-01-25T04:39:05.185Z,36.10
2018-01-25T04:41:35.942Z,37.07
2018-01-25T04:44:06.693Z,32.47
2018-01-25T04:46:37.429Z,38.17
2018-01-25T04:49:08.183Z,38.07
2018-01-25T04:51:38.920Z,38.43
2018-01-25T04:54:09.685Z,36.57
2018-01-25T04:56:40.432Z,39.77
2018-01-25T04:59:11.200Z,37.13
2018-01-25T05:01:41.936Z,37.67
2018-01-25T05:04:12.695Z,34.70
2018-01-25T05:06:43.428Z,33.47
2018-01-25T05:09:14.204Z,33.10
2018-01-25T05:11:44.945Z,35.60
2018-01-25T05:14:15.717Z,36.20
2018-01-25T05:16:48.281Z,35.13
2018-01-25T05:19:19.038Z,36.90
2018-01-25T05:21:49.783Z,34.83
2018-01-25T05:24:20.536Z,36.43
2018-01-25T05:26:51.268Z,33.50
2018-01-25T05:29:22.068Z,37.10
2018-01-25T05:31:52.818Z,35.80
2018-01-25T05:34:23.576Z,30.73
2018-01-25T05:36:54.327Z,33.93
2018-01-25T05:39:25.084Z,29.23
2018-01-25T05:41:55.844Z,33.40
2018-01-25T05:44:26.608Z,29.33
2018-01-25T05:46:57.349Z,34.07
2018-01-25T05:49:28.241Z,33.30
2018-01-25T05:51:59.045Z,34.53
2018-01-25T05:54:29.812Z,33.07
2018-01-25T05:57:00.561Z,33.63
2018-01-25T05:59:31.304Z,31.50
2018-01-25T06:02:02.073Z,35.97
2018-01-25T06:04:32.827Z,36.73
2018-01-25T06:07:03.567Z,32.77
2018-01-25T06:09:34.342Z,34.23
2018-01-25T06:12:05.088Z,39.83
2018-01-25T06:14:35.864Z,37.63
2018-01-25T06:17:06.596Z,36.10
2018-01-25T06:19:37.343Z,34.17
2018-01-25T06:22:08.160Z,31.77
2018-01-25T06:24:38.909Z,38.20
2018-01-25T06:27:09.645Z,33.03
2018-01-25T06:29:40.401Z,36.10
2018-01-25T06:32:11.150Z,36.47
2018-01-25T06:34:41.924Z,32.93
2018-01-25T06:37:12.664Z,34.07
2018-01-25T06:39:43.426Z,32.70
2018-01-25T06:42:14.161Z,33.40
2018-01-25T06:44:44.925Z,38.57
2018-01-25T06:47:15.667Z,30.63
2018-01-25T06:49:46.417Z,35.67
2018-01-25T06:52:17.186Z,30.90
2018-01-25T06:54:47.929Z,26.97
2018-01-25T06:57:18.661Z,28.27
2018-01-25T06:59:49.428Z,30.63
2018-01-25T07:02:20.160Z,27.83
2018-01-25T07:04:50.934Z,31.30
2018-01-25T07:07:21.687Z,31.67
2018-01-25T07:09:52.490Z,29.90
2018-01-25T07:12:23.213Z,27.67
2018-01-25T07:14:53.959Z,29.53
2018-01-25T07:17:24.693Z,30.50
2018-01-25T07:19:55.445Z,35.87
2018-01-25T07:22:26.188Z,32.20
2018-01-25T07:24:56.957Z,33.87
2018-01-25T07:27:27.736Z,29.57
2018-01-25T07:29:58.495Z,34.33
2018-01-25T07:32:29.232Z,28.90
2018-01-25T07:34:59.999Z,28.67
2018-01-25T07:37:30.758Z,27.70
2018-01-25T07:40:01.600Z,31.33
2018-01-25T07:42:32.358Z,30.70
2018-01-25T07:45:03.117Z,31.03
2018-01-25T07:47:33.844Z,33.47
2018-01-25T07:50:04.595Z,27.80
2018-01-25T07:52:35.336Z,30.80
2018-01-25T07:55:06.099Z,29.37
2018-01-25T08:11:03.285Z,25.60
2018-01-25T08:13:38.948Z,30.10
2018-01-25T08:16:16.020Z,31.20
2018-01-25T08:18:46.778Z,34.20
2018-01-25T08:21:17.632Z,29.73
2018-01-25T08:23:48.375Z,34.50
2018-01-25T08:26:19.125Z,36.53
2018-01-25T08:28:49.861Z,31.53
2018-01-25T08:31:20.688Z,70.07
2018-01-25T08:33:51.472Z,38.20
2018-01-25T08:36:22.472Z,46.80
2018-01-25T08:38:53.224Z,92.25
2018-01-25T08:41:23.977Z,35.33
2018-01-25T08:43:54.728Z,30.03
2018-01-25T08:46:25.524Z,27.83
2018-01-25T08:48:56.260Z,29.40
2018-01-25T08:51:34.016Z,26.53
2018-01-25T08:54:04.777Z,25.20
2018-01-25T08:56:35.545Z,29.30
2018-01-25T08:59:06.305Z,24.07
2018-01-25T09:01:37.050Z,24.30
2018-01-25T09:04:07.800Z,23.87
2018-01-25T09:06:38.554Z,23.03
2018-01-25T09:09:09.301Z,22.67
2018-01-25T09:11:40.061Z,24.93
2018-01-25T09:14:10.812Z,23.87
2018-01-25T09:16:41.590Z,21.83
2018-01-25T09:19:12.397Z,22.13
2018-01-25T09:21:43.135Z,22.47
2018-01-25T09:24:13.872Z,22.70
2018-01-25T09:26:44.648Z,19.33
2018-01-25T09:29:15.426Z,22.47
2018-01-25T09:31:46.234Z,20.50
2018-01-25T09:34:17.087Z,23.20
2018-01-25T09:36:47.876Z,23.43
2018-01-25T09:39:18.627Z,21.93
2018-01-25T09:41:49.380Z,17.00
2018-01-25T09:44:20.124Z,20.00
2018-01-25T09:46:50.912Z,18.93
2018-01-25T09:49:21.675Z,18.97
2018-01-25T09:51:52.444Z,16.33
2018-01-25T09:54:23.239Z,19.20
2018-01-25T09:56:53.989Z,16.57
2018-01-25T09:59:24.741Z,17.17
2018-01-25T10:01:55.516Z,16.60
2018-01-25T10:04:26.269Z,18.20
2018-01-25T10:06:57.056Z,16.27
2018-01-25T10:09:27.861Z,14.37
2018-01-25T10:11:58.735Z,15.47
2018-01-25T10:14:29.569Z,15.83
2018-01-25T10:17:00.454Z,14.50
2018-01-25T10:19:31.224Z,14.37
2018-01-25T10:22:02.106Z,16.47
2018-01-25T10:24:32.892Z,17.60
2018-01-25T10:27:03.737Z,17.53
2018-01-25T10:29:34.461Z,14.57
2018-01-25T10:32:05.201Z,14.53
2018-01-25T10:34:35.949Z,12.50
2018-01-25T10:37:06.712Z,13.40
2018-01-25T10:39:37.470Z,15.43
2018-01-25T10:42:08.223Z,12.17
2018-01-25T10:44:38.980Z,14.43
2018-01-25T10:47:09.760Z,15.37
2018-01-25T10:49:40.521Z,13.33
2018-01-25T10:52:11.268Z,11.93
2018-01-25T10:54:42.033Z,13.83
2018-01-25T10:57:12.788Z,13.87
2018-01-25T10:59:43.574Z,13.03
2018-01-25T11:02:14.296Z,13.57
2018-01-25T11:04:45.148Z,13.90
2018-01-25T11:07:15.917Z,13.40
2018-01-25T11:09:46.671Z,12.50
2018-01-25T11:12:17.439Z,12.03
2018-01-25T11:14:48.181Z,12.50
2018-01-25T11:17:19.724Z,13.30
2018-01-25T11:19:50.574Z,11.40
2018-01-25T11:22:21.329Z,11.30
2018-01-25T11:24:52.068Z,12.37
2018-01-25T11:27:22.836Z,13.93
2018-01-25T11:29:53.595Z,11.70
2018-01-25T11:32:24.380Z,11.23
2018-01-25T11:34:55.141Z,10.17
2018-01-25T11:37:25.923Z,10.33
2018-01-25T11:39:56.690Z,12.27
2018-01-25T11:42:27.460Z,10.97
2018-01-25T11:44:58.239Z,11.63
2018-01-25T11:47:28.997Z,10.47
2018-01-25T11:49:59.769Z,9.40
2018-01-25T11:52:30.532Z,12.40
2018-01-25T11:55:01.359Z,11.43
2018-01-25T11:57:32.140Z,9.57
2018-01-25T12:00:02.942Z,9.67
2018-01-25T12:02:33.787Z,9.57
2018-01-25T12:05:04.537Z,10.60
2018-01-25T12:07:35.328Z,8.83
2018-01-25T12:10:06.073Z,8.63
2018-01-25T12:12:36.872Z,10.37
2018-01-25T12:15:07.626Z,9.70
2018-01-25T12:17:38.389Z,10.70
2018-01-25T12:20:09.213Z,9.80
2018-01-25T12:22:39.972Z,10.30
2018-01-25T12:25:10.716Z,9.80
2018-01-25T12:27:41.562Z,10.67
2018-01-25T12:30:12.381Z,9.67
2018-01-25T12:32:43.123Z,9.63
2018-01-25T12:35:13.924Z,10.73
2018-01-25T12:37:44.676Z,11.60
2018-01-25T12:40:15.506Z,9.60
2018-01-25T12:42:46.276Z,11.80
2018-01-25T12:45:17.051Z,10.27
2018-01-25T12:47:47.833Z,11.20
2018-01-25T12:50:18.636Z,9.80
2018-01-25T12:52:49.385Z,10.30
2018-01-25T12:55:20.208Z,10.63
2018-01-25T12:57:50.940Z,10.70
2018-01-25T13:00:21.768Z,11.70
2018-01-25T13:02:52.614Z,9.90
2018-01-25T13:05:23.376Z,10.90
2018-01-25T13:07:54.141Z,11.40
2018-01-25T13:10:25.805Z,10.53
2018-01-25T13:12:56.566Z,11.10
2018-01-25T13:15:27.359Z,12.17
2018-01-25T13:17:58.260Z,11.93
2018-01-25T13:20:29.136Z,10.57
2018-01-25T13:22:59.950Z,11.73
2018-01-25T13:25:30.753Z,10.47
2018-01-25T13:28:01.624Z,10.33
2018-01-25T13:30:32.425Z,9.43
2018-01-25T13:33:09.545Z,10.77
2018-01-25T13:35:40.340Z,13.88
2018-01-25T13:38:11.136Z,9.00
2018-01-25T13:40:41.876Z,14.90
2018-01-25T13:46:10.961Z,11.95
2018-01-25T13:48:41.797Z,9.48
2018-01-25T13:51:12.608Z,9.03
2018-01-25T13:53:43.390Z,8.20
2018-01-25T13:56:14.167Z,9.27
2018-01-25T13:58:44.999Z,8.63
2018-01-25T14:01:15.879Z,10.93
2018-01-25T14:03:46.631Z,9.10
2018-01-25T14:06:17.406Z,8.13
2018-01-25T14:08:48.241Z,8.27
2018-01-25T14:11:18.986Z,13.33
2018-01-25T14:13:49.776Z,9.00
2018-01-25T14:16:20.549Z,14.33
2018-01-25T14:18:51.332Z,8.57
2018-01-25T14:21:22.131Z,7.93
2018-01-25T14:23:52.928Z,8.50
2018-01-25T14:26:23.684Z,10.60
2018-01-25T14:28:54.436Z,8.77
2018-01-25T14:31:25.169Z,10.10
2018-01-25T14:33:55.982Z,8.63
2018-01-25T14:36:26.712Z,8.53
2018-01-25T14:38:57.528Z,8.70
2018-01-25T14:41:28.276Z,9.53
2018-01-25T14:43:59.049Z,7.93
2018-01-25T14:46:29.796Z,11.80
2018-01-25T14:49:00.633Z,10.70
2018-01-25T14:51:31.388Z,10.17
2018-01-25T14:54:02.177Z,10.03
2018-01-25T14:56:32.934Z,10.10
2018-01-25T14:59:04.796Z,8.63
2018-01-25T15:01:35.576Z,8.90
2018-01-25T15:04:08.430Z,9.67
2018-01-25T15:06:39.192Z,9.18
2018-01-25T15:09:09.965Z,10.33
2018-01-25T15:11:40.736Z,10.27
2018-01-25T15:14:11.534Z,12.03
2018-01-25T15:16:43.392Z,10.97
2018-01-25T15:19:14.182Z,9.68
2018-01-25T15:21:45.011Z,12.43
2018-01-25T15:24:15.810Z,10.77
2018-01-25T15:26:49.503Z,10.63
2018-01-25T15:29:20.252Z,9.18
2018-01-25T15:31:50.987Z,12.60
2018-01-25T15:34:21.767Z,10.53
2018-01-25T15:36:52.514Z,12.20
2018-01-25T15:39:23.299Z,10.53
2018-01-25T15:41:54.088Z,10.63
2018-01-25T15:44:25.018Z,11.27
2018-01-25T15:46:55.775Z,9.67
2018-01-25T15:49:26.564Z,12.37
2018-01-25T15:51:57.357Z,11.70
2018-01-25T15:54:28.133Z,13.67
2018-01-25T15:56:58.877Z,11.33
2018-01-25T15:59:29.668Z,12.17
2018-01-25T16:02:00.484Z,14.17
2018-01-25T16:04:31.460Z,16.00
2018-01-25T16:07:02.324Z,13.13
2018-01-25T16:09:33.232Z,15.30
2018-01-25T16:12:04.058Z,14.57
2018-01-25T16:14:34.900Z,16.50
2018-01-25T16:17:05.724Z,14.60
2018-01-25T16:19:36.483Z,15.27
2018-01-25T16:22:07.243Z,17.13
2018-01-25T16:24:38.049Z,19.93
2018-01-25T16:27:08.858Z,19.40
2018-01-25T16:29:39.669Z,16.70
2018-01-25T16:32:10.531Z,17.30
2018-01-25T16:34:41.374Z,13.23
2018-01-25T16:37:12.129Z,17.80
2018-01-25T16:39:42.900Z,15.23
2018-01-25T16:42:13.705Z,13.20
2018-01-25T16:44:44.469Z,17.23
2018-01-25T16:47:15.220Z,13.83
2018-01-25T16:49:45.987Z,11.53
2018-01-25T16:52:16.903Z,14.90
2018-01-25T16:54:47.672Z,13.30
2018-01-25T16:57:18.484Z,16.03
2018-01-25T16:59:49.330Z,19.00
2018-01-25T17:02:20.089Z,14.13
2018-01-25T17:04:50.848Z,15.07
2018-01-25T17:07:21.587Z,15.10
2018-01-25T17:09:52.520Z,14.70
2018-01-25T17:12:23.276Z,11.83
2018-01-25T17:14:54.030Z,14.53
2018-01-25T17:17:25.012Z,14.60
2018-01-25T17:19:55.802Z,17.85
2018-01-25T17:22:26.715Z,15.97
2018-01-25T17:24:57.588Z,15.53
2018-01-25T17:27:28.383Z,15.27
2018-01-25T17:29:59.144Z,15.80
2018-01-25T17:32:30.025Z,15.60
2018-01-25T17:35:00.837Z,20.60
2018-01-25T17:37:31.659Z,14.77
2018-01-25T17:40:02.459Z,14.20
2018-01-25T17:42:33.228Z,13.50
2018-01-25T17:45:03.992Z,15.47
2018-01-25T17:47:34.865Z,18.90
2018-01-25T17:50:05.643Z,17.40
2018-01-25T17:52:36.467Z,15.27
2018-01-25T17:55:07.320Z,21.00
2018-01-25T17:57:45.200Z,16.83
2018-01-25T18:00:16.143Z,19.40
2018-01-25T18:02:46.912Z,19.80
2018-01-25T18:05:17.772Z,17.20
2018-01-25T18:07:48.565Z,20.03
2018-01-25T18:10:19.390Z,20.80
2018-01-25T18:12:50.264Z,17.97
2018-01-25T18:15:21.116Z,19.90
2018-01-25T18:17:51.928Z,18.60
2018-01-25T18:20:22.707Z,17.27
2018-01-25T18:22:53.467Z,18.97
2018-01-25T18:25:24.224Z,20.93
2018-01-25T18:27:55.151Z,20.87
2018-01-25T18:30:25.910Z,19.43
2018-01-25T18:32:56.775Z,23.30
2018-01-25T18:35:27.596Z,18.83
2018-01-25T18:37:58.478Z,18.60
2018-01-25T18:40:29.368Z,19.23
2018-01-25T18:43:00.171Z,19.53
2018-01-25T18:45:30.975Z,20.53
2018-01-25T18:48:01.736Z,19.83
2018-01-25T18:50:32.591Z,19.53
2018-01-25T18:53:03.441Z,18.47
2018-01-25T18:55:34.184Z,15.30
2018-01-25T18:58:05.019Z,17.73
2018-01-25T19:00:35.792Z,19.53
2018-01-25T19:03:06.724Z,21.17
2018-01-25T19:05:37.603Z,17.80
2018-01-25T19:08:08.431Z,15.93
2018-01-25T19:10:39.421Z,17.73
2018-01-25T19:13:10.284Z,18.08
2018-01-25T19:15:41.070Z,18.93
2018-01-25T19:18:11.868Z,18.80
2018-01-25T19:20:42.785Z,18.83
2018-01-25T19:23:13.674Z,18.23
2018-01-25T19:25:44.591Z,16.40
2018-01-25T19:28:15.509Z,15.60
2018-01-25T19:30:46.381Z,19.60
2018-01-25T19:33:17.277Z,17.60
2018-01-25T19:35:48.161Z,20.33
2018-01-25T19:38:19.125Z,18.50
2018-01-25T19:40:49.933Z,16.13
2018-01-25T19:43:20.796Z,21.03
2018-01-25T19:45:51.639Z,19.83
2018-01-25T19:48:22.432Z,20.37
2018-01-25T19:50:57.243Z,21.70
2018-01-25T19:53:31.618Z,18.30
2018-01-25T19:56:02.431Z,18.60
2018-01-25T19:58:33.259Z,22.60
2018-01-25T20:01:04.130Z,21.50
2018-01-25T20:03:35.001Z,20.60
2018-01-25T20:06:05.846Z,20.17
2018-01-25T20:08:36.712Z,20.33
2018-01-25T20:11:07.547Z,23.20
2018-01-25T20:13:38.476Z,21.70
2018-01-25T20:16:09.240Z,19.20
2018-01-25T20:18:40.108Z,19.67
2018-01-25T20:21:11.029Z,22.37
2018-01-25T20:23:41.867Z,21.03
2018-01-25T20:26:12.669Z,23.40
2018-01-25T20:28:43.450Z,18.93
2018-01-25T20:31:14.190Z,24.83
2018-01-25T20:33:45.026Z,20.70
2018-01-25T20:36:15.958Z,23.50
2018-01-25T20:38:46.788Z,19.57
2018-01-25T20:41:17.604Z,23.03
2018-01-25T20:43:48.420Z,23.83
2018-01-25T20:46:19.257Z,23.43
2018-01-25T20:48:50.024Z,26.43
2018-01-25T20:51:20.824Z,26.70
2018-01-25T20:53:51.639Z,25.03
2018-01-25T20:56:22.468Z,25.73
2018-01-25T20:58:53.295Z,21.23
2018-01-25T21:01:24.152Z,25.17
2018-01-25T21:03:54.898Z,22.70
2018-01-25T21:06:25.704Z,23.37
2018-01-25T21:08:56.520Z,22.47
2018-01-25T21:11:27.359Z,24.10
2018-01-25T21:13:58.108Z,24.53
2018-01-25T21:16:28.903Z,25.63
2018-01-25T21:18:59.709Z,25.87
2018-01-25T21:21:30.586Z,22.80
2018-01-25T21:24:01.371Z,22.60
2018-01-25T21:26:38.705Z,23.33
2018-01-25T21:29:09.521Z,24.98
2018-01-25T21:31:40.466Z,20.80
2018-01-25T21:34:11.300Z,22.97
2018-01-25T21:36:42.108Z,20.80
2018-01-25T21:39:12.970Z,22.40
2018-01-25T21:41:43.800Z,23.97
2018-01-25T21:44:14.599Z,22.60
2018-01-25T21:46:45.412Z,20.33
2018-01-25T21:49:16.177Z,25.37
2018-01-25T21:51:46.972Z,19.30
2018-01-25T21:54:17.786Z,20.43
2018-01-25T21:56:48.596Z,22.20
2018-01-25T21:59:19.466Z,30.80
2018-01-25T22:01:50.274Z,21.50
2018-01-25T22:04:21.042Z,24.40
2018-01-25T22:06:51.809Z,24.20
2018-01-25T22:09:22.659Z,20.77
2018-01-25T22:11:53.693Z,18.97
2018-01-25T22:14:24.545Z,21.52
2018-01-25T22:16:55.362Z,19.77
2018-01-25T22:19:26.117Z,25.57
2018-01-25T22:21:56.915Z,21.00
2018-01-25T22:24:27.819Z,22.00
2018-01-25T22:26:58.731Z,22.00
2018-01-25T22:29:29.618Z,20.60
2018-01-25T22:32:00.432Z,23.00
2018-01-25T22:34:31.223Z,22.20
2018-01-25T22:37:02.880Z,20.50
2018-01-25T22:39:33.880Z,22.52
2018-01-25T22:42:04.738Z,21.25
2018-01-25T22:44:35.520Z,25.83
2018-01-25T22:47:06.340Z,22.17
2018-01-25T22:49:37.995Z,22.47
2018-01-25T22:52:09.136Z,24.15
2018-01-25T22:54:39.935Z,22.30
2018-01-25T22:57:14.821Z,21.37
2018-01-25T22:59:45.604Z,25.80
2018-01-25T23:02:16.419Z,23.50
2018-01-25T23:04:47.257Z,22.90
2018-01-25T23:07:18.074Z,22.40
2018-01-25T23:09:48.856Z,24.57
2018-01-25T23:12:19.718Z,22.07
2018-01-25T23:14:50.463Z,24.03
2018-01-25T23:17:21.279Z,24.47
2018-01-25T23:19:52.072Z,27.13
2018-01-25T23:22:22.907Z,20.30
2018-01-25T23:24:53.686Z,20.97
2018-01-25T23:27:24.552Z,22.50
2018-01-25T23:29:55.334Z,23.40
2018-01-25T23:32:26.108Z,23.93
2018-01-25T23:34:56.850Z,20.53
2018-01-25T23:37:27.648Z,21.07
2018-01-25T23:39:58.387Z,22.23
2018-01-25T23:42:29.327Z,19.63
2018-01-25T23:45:00.084Z,21.80
2018-01-25T23:47:30.855Z,20.10
2018-01-25T23:50:01.593Z,22.00
2018-01-25T23:52:32.392Z,24.83
2018-01-25T23:55:03.131Z,26.37
2018-01-25T23:57:33.894Z,22.90
